Time;durP1;ratioP1;P1;durP2;ratioP2;P2;SDS_P1;SDS_P2;PMS_P1;PMS_P2;Temp;Humidity;BMP_temperature;BMP_pressure;BME280_temperature;BME280_humidity;BME280_pressure;Samples;Min_cycle;Max_cycle;Signal;HPM_P1;HPM_P2
2022/12/31 00:04:27;;;;;;;;;;;;;;;19.93;38.64;95638.72;10394137;28;2587;-50
2022/12/31 00:09:27;;;;;;;;;;;;;;;19.90;38.44;95639.28;10390775;28;4746;-49
2022/12/31 00:14:27;;;;;;;;;;;;;;;19.88;38.71;95646.66;10391751;28;2745;-49
2022/12/31 00:19:28;;;;;;;;;;;;;;;19.91;38.57;95640.81;10397533;28;2555;-47
2022/12/31 00:24:29;;;;;;;;;;;;;;;19.81;38.43;95631.16;10395694;28;2703;-47
2022/12/31 00:29:30;;;;;;;;;;;;;;;19.78;38.37;95636.19;10399769;28;2677;-49
2022/12/31 00:34:30;;;;;;;;;;;;;;;19.75;38.49;95634.88;10391089;28;2608;-51
2022/12/31 00:39:30;;;;;;;;;;;;;;;19.73;38.59;95633.56;10389105;28;2587;-47
2022/12/31 00:44:30;;;;;;;;;;;;;;;19.70;38.63;95639.38;10392086;28;2597;-47
2022/12/31 00:49:31;;;;;;;;;;;;;;;19.71;38.56;95646.19;10403375;28;2633;-51
2022/12/31 00:54:31;;;;;;;;;;;;;;;19.70;38.19;95652.53;10399099;28;2605;-47
2022/12/31 00:59:31;;;;;;;;;;;;;;;19.64;38.33;95669.38;10394505;28;2607;-48
2022/12/31 01:04:31;;;;;;;;;;;;;;;19.63;38.23;95668.59;10395576;28;2547;-47
2022/12/31 01:09:32;;;;;;;;;;;;;;;19.64;38.40;95678.03;10387965;28;5002;-48
2022/12/31 01:14:32;;;;;;;;;;;;;;;19.57;38.65;95684.66;10391884;28;2514;-47
2022/12/31 01:19:33;;;;;;;;;;;;;;;19.53;38.23;95687.03;10397046;28;2604;-46
2022/12/31 01:24:33;;;;;;;;;;;;;;;19.53;38.60;95707.28;10390502;28;2607;-52
2022/12/31 01:29:33;;;;;;;;;;;;;;;19.52;38.52;95706.47;10388969;28;2705;-49
2022/12/31 01:34:33;;;;;;;;;;;;;;;19.47;38.49;95723.03;10392916;28;2682;-47
2022/12/31 01:39:33;;;;;;;;;;;;;;;19.46;38.49;95723.31;10391849;28;2601;-51
2022/12/31 01:44:37;;;;;;;;;;;;;;;19.42;38.42;95733.59;10394451;28;2609;-46
2022/12/31 01:49:38;;;;;;;;;;;;;;;19.43;38.56;95737.78;10387997;28;2637;-48
2022/12/31 01:54:39;;;;;;;;;;;;;;;19.39;38.75;95736.75;10392255;28;2548;-48
2022/12/31 01:59:39;;;;;;;;;;;;;;;19.39;38.37;95738.59;10389114;28;2668;-47
2022/12/31 02:04:40;;;;;;;;;;;;;;;19.36;38.52;95744.38;10391952;28;2577;-47
2022/12/31 02:09:40;;;;;;;;;;;;;;;19.35;38.75;95738.31;10391831;28;4954;-50
2022/12/31 02:14:45;;;;;;;;;;;;;;;19.34;38.54;95742.03;10407843;28;2851;-47
2022/12/31 02:20:05;;;;;;;;;;;;;;;19.34;38.68;95736.75;10391567;28;2616;-48
2022/12/31 02:25:27;;;;;;;;;;;;;;;19.34;38.55;95738.59;10391529;28;2593;-46
2022/12/31 02:30:28;;;;;;;;;;;;;;;19.30;38.65;95737.53;10403319;28;2572;-52
2022/12/31 02:35:30;;;;;;;;;;;;;;;19.25;38.76;95730.44;10406839;28;2678;-49
2022/12/31 02:40:31;;;;;;;;;;;;;;;19.24;38.83;95734.13;10405246;28;2669;-46
2022/12/31 02:45:36;;;;;;;;;;;;;;;19.26;38.75;95739.91;10388344;28;2726;-51
2022/12/31 02:50:54;;;;;;;;;;;;;;;19.23;38.82;95745.66;10408648;28;2585;-50
2022/12/31 02:55:56;;;;;;;;;;;;;;;19.20;38.67;95746.22;10387994;28;2549;-48
2022/12/31 03:06:15;;;;;;;;;;;;;;;19.17;38.76;95744.09;10389387;28;5072;-50
2022/12/31 03:12:45;;;;;;;;;;;;;;;19.18;38.78;95756.19;10391582;28;2571;-47
2022/12/31 03:16:36;;;;;;;;;;;;;;;19.14;38.88;95752.53;10395267;28;2569;-47
2022/12/31 03:26:56;;;;;;;;;;;;;;;19.13;38.91;95756.19;10407596;28;2611;-46
2022/12/31 03:31:56;;;;;;;;;;;;;;;19.12;38.82;95765.16;10395081;28;2608;-48
2022/12/31 03:36:56;;;;;;;;;;;;;;;19.09;38.92;95776.16;10391278;28;2592;-49
2022/12/31 03:41:57;;;;;;;;;;;;;;;19.08;38.89;95764.06;10392460;28;2600;-47
2022/12/31 03:46:57;;;;;;;;;;;;;;;19.07;38.90;95786.16;10390857;28;2608;-47
2022/12/31 03:51:58;;;;;;;;;;;;;;;19.05;38.88;95777.75;10396248;28;2576;-49
2022/12/31 03:56:58;;;;;;;;;;;;;;;19.05;38.78;95785.63;10402158;28;2601;-49
2022/12/31 04:01:59;;;;;;;;;;;;;;;19.05;38.80;95774.31;10392182;28;2584;-49
2022/12/31 04:07:00;;;;;;;;;;;;;;;19.03;38.63;95792.19;10396231;28;4962;-48
2022/12/31 04:12:00;;;;;;;;;;;;;;;19.03;38.78;95792.19;10399557;28;2517;-48
2022/12/31 04:17:00;;;;;;;;;;;;;;;18.99;38.50;95794.56;10400630;28;2523;-46
2022/12/31 04:22:01;;;;;;;;;;;;;;;19.00;38.80;95806.63;10391813;28;2569;-47
2022/12/31 04:27:01;;;;;;;;;;;;;;;18.98;38.95;95813.22;10403905;28;2619;-51
2022/12/31 04:32:02;;;;;;;;;;;;;;;18.97;38.96;95820.28;10409261;28;2597;-47
2022/12/31 04:37:02;;;;;;;;;;;;;;;18.96;38.75;95834.47;10399036;28;2540;-47
2022/12/31 04:42:03;;;;;;;;;;;;;;;18.96;38.84;95823.19;10399731;28;2622;-48
2022/12/31 04:47:03;;;;;;;;;;;;;;;18.95;38.85;95827.66;10387736;28;2624;-50
2022/12/31 04:52:03;;;;;;;;;;;;;;;18.93;39.02;95828.97;10396789;28;2550;-48
2022/12/31 04:57:03;;;;;;;;;;;;;;;18.92;39.00;95837.91;10389842;28;2653;-47
2022/12/31 05:02:04;;;;;;;;;;;;;;;18.94;38.77;95835.81;10392381;28;2591;-50
2022/12/31 05:07:04;;;;;;;;;;;;;;;18.93;38.94;95835.00;10395293;28;2567;-47
2022/12/31 05:12:04;;;;;;;;;;;;;;;18.89;39.08;95839.19;10391374;28;2621;-48
2022/12/31 05:17:05;;;;;;;;;;;;;;;18.89;39.00;95843.66;10385802;28;2560;-49
2022/12/31 05:27:24;;;;;;;;;;;;;;;18.85;38.88;95843.41;10389829;28;2487;-47
2022/12/31 05:32:24;;;;;;;;;;;;;;;18.85;38.90;95859.16;10391183;28;2593;-46
2022/12/31 05:37:25;;;;;;;;;;;;;;;18.83;38.96;95856.00;10385808;28;2564;-50
2022/12/31 05:42:25;;;;;;;;;;;;;;;18.85;38.97;95853.91;10393707;28;2875;-50
2022/12/31 05:47:25;;;;;;;;;;;;;;;18.83;39.05;95848.13;10381322;28;2618;-49
2022/12/31 05:52:26;;;;;;;;;;;;;;;18.84;39.03;95844.44;10393072;28;2546;-48
2022/12/31 05:57:26;;;;;;;;;;;;;;;18.82;38.92;95843.91;10388295;28;2536;-48
2022/12/31 06:02:26;;;;;;;;;;;;;;;18.80;39.08;95839.94;10396293;28;2662;-46
2022/12/31 06:07:26;;;;;;;;;;;;;;;18.81;39.05;95852.84;10391512;28;4867;-48
2022/12/31 06:12:27;;;;;;;;;;;;;;;18.80;38.98;95859.13;10394239;28;2574;-49
2022/12/31 06:17:28;;;;;;;;;;;;;;;18.83;39.04;95861.25;10388882;28;2731;-47
2022/12/31 06:22:28;;;;;;;;;;;;;;;18.91;39.06;95870.44;10383996;28;3032;-47
2022/12/31 06:27:28;;;;;;;;;;;;;;;19.05;38.70;95874.16;10390015;28;2577;-47
2022/12/31 06:32:28;;;;;;;;;;;;;;;19.10;38.52;95885.44;10389864;28;2524;-45
2022/12/31 06:37:29;;;;;;;;;;;;;;;19.08;38.59;95890.19;10391974;28;2600;-47
2022/12/31 06:42:32;;;;;;;;;;;;;;;19.10;38.15;95897.81;10402889;28;2922;-48
2022/12/31 06:47:32;;;;;;;;;;;;;;;19.11;37.60;95902.81;10396191;28;2606;-47
2022/12/31 06:52:32;;;;;;;;;;;;;;;19.14;37.29;95893.63;10404911;28;2570;-51
2022/12/31 06:57:33;;;;;;;;;;;;;;;19.19;37.00;95883.09;10401481;28;2559;-46
2022/12/31 07:02:39;;;;;;;;;;;;;;;19.21;36.77;95886.25;10403823;28;2705;-48
2022/12/31 07:07:39;;;;;;;;;;;;;;;19.24;36.84;95899.69;10401390;28;4978;-48
2022/12/31 07:12:39;;;;;;;;;;;;;;;19.29;36.47;95907.56;10403045;28;2582;-52
2022/12/31 07:17:55;;;;;;;;;;;;;;;19.32;36.93;95907.06;10404278;28;2587;-46
2022/12/31 07:22:55;;;;;;;;;;;;;;;19.36;36.65;95908.13;10393996;28;2876;-50
2022/12/31 07:27:58;;;;;;;;;;;;;;;19.39;36.50;95917.34;10399609;28;2583;-46
2022/12/31 07:33:01;;;;;;;;;;;;;;;19.44;37.08;95923.38;10395897;28;2680;-48
2022/12/31 07:38:06;;;;;;;;;;;;;;;19.44;36.57;95920.75;10394149;28;2639;-47
2022/12/31 07:43:25;;;;;;;;;;;;;;;19.60;38.10;95933.91;10400457;28;2617;-47
2022/12/31 07:48:26;;;;;;;;;;;;;;;19.55;36.73;95942.59;10397232;28;2616;-51
2022/12/31 07:53:27;;;;;;;;;;;;;;;19.54;37.04;95956.00;10396408;28;2584;-48
2022/12/31 07:58:31;;;;;;;;;;;;;;;19.56;36.94;95953.91;10393088;28;2636;-48
2022/12/31 08:03:51;;;;;;;;;;;;;;;19.58;36.45;95962.31;10410680;28;2677;-46
2022/12/31 08:08:58;;;;;;;;;;;;;;;19.63;37.95;95968.38;10405463;28;5101;-48
2022/12/31 08:14:01;;;;;;;;;;;;;;;19.62;37.30;95974.66;10403298;28;2555;-50
2022/12/31 08:19:02;;;;;;;;;;;;;;;19.70;37.84;95960.22;10390628;28;2890;-48
2022/12/31 08:24:05;;;;;;;;;;;;;;;19.68;36.81;95973.59;10394371;28;2587;-47
2022/12/31 08:29:23;;;;;;;;;;;;;;;19.70;37.28;95976.00;10394413;28;2557;-48
2022/12/31 08:34:26;;;;;;;;;;;;;;;19.70;36.98;95970.75;10391483;28;2688;-50
2022/12/31 08:39:34;;;;;;;;;;;;;;;19.71;36.79;95967.84;10398965;28;2682;-49
2022/12/31 08:44:46;;;;;;;;;;;;;;;19.72;37.30;95958.88;10391077;28;2569;-51
2022/12/31 08:49:46;;;;;;;;;;;;;;;19.75;37.17;95962.84;10397816;28;2601;-46
2022/12/31 08:54:47;;;;;;;;;;;;;;;19.78;37.00;95955.22;10388815;28;2974;-50
2022/12/31 09:00:01;;;;;;;;;;;;;;;19.82;37.39;95958.91;10389792;28;2591;-50
2022/12/31 09:05:01;;;;;;;;;;;;;;;19.87;37.47;95971.25;10390082;28;2835;-47
2022/12/31 09:10:13;;;;;;;;;;;;;;;19.91;37.44;95974.94;10396369;28;4993;-50
2022/12/31 09:15:20;;;;;;;;;;;;;;;19.91;37.75;95982.81;10408433;28;2951;-47
2022/12/31 09:20:30;;;;;;;;;;;;;;;19.94;37.63;95982.31;10390031;28;2600;-49
2022/12/31 09:25:30;;;;;;;;;;;;;;;19.93;37.14;95986.78;10385469;28;2615;-49
2022/12/31 09:30:38;;;;;;;;;;;;;;;19.94;37.42;95977.06;10391882;28;2553;-49
2022/12/31 09:35:41;;;;;;;;;;;;;;;19.94;37.84;95977.84;10396304;28;2609;-52
2022/12/31 09:41:00;;;;;;;;;;;;;;;19.94;37.34;95977.06;10388864;28;2641;-47
2022/12/31 09:46:03;;;;;;;;;;;;;;;19.95;38.27;95971.53;10392664;28;2727;-46
2022/12/31 09:51:06;;;;;;;;;;;;;;;19.94;37.42;95967.31;10394078;28;2786;-53
2022/12/31 09:56:09;;;;;;;;;;;;;;;19.97;37.69;95971.28;10410539;28;2640;-51
2022/12/31 10:01:15;;;;;;;;;;;;;;;20.02;38.15;95977.31;10389901;28;2564;-49
2022/12/31 10:06:27;;;;;;;;;;;;;;;20.07;38.01;95974.66;10385853;28;4967;-51
2022/12/31 10:11:39;;;;;;;;;;;;;;;20.09;38.01;95974.41;10385216;28;3016;-51
2022/12/31 10:16:47;;;;;;;;;;;;;;;20.11;38.48;95970.44;10394153;28;2591;-50
2022/12/31 10:21:53;;;;;;;;;;;;;;;20.10;38.45;95965.47;10383466;28;2667;-49
2022/12/31 10:27:04;;;;;;;;;;;;;;;20.14;38.43;95955.97;10397414;28;2674;-51
2022/12/31 10:32:17;;;;;;;;;;;;;;;20.10;38.44;95957.56;10390421;28;2589;-51
2022/12/31 10:37:22;;;;;;;;;;;;;;;20.05;38.93;95947.06;10383243;28;2729;-45
2022/12/31 10:42:22;;;;;;;;;;;;;;;20.01;38.89;95944.16;10404749;28;2580;-48
2022/12/31 10:47:41;;;;;;;;;;;;;;;20.02;38.75;95950.22;10392947;28;2955;-53
2022/12/31 10:53:00;;;;;;;;;;;;;;;19.96;39.15;95946.00;10385543;28;2665;-49
2022/12/31 10:58:18;;;;;;;;;;;;;;;19.92;39.04;95945.75;10389331;28;2531;-49
2022/12/31 11:03:27;;;;;;;;;;;;;;;19.89;38.98;95943.63;10381827;28;2865;-51
2022/12/31 11:08:39;;;;;;;;;;;;;;;19.88;39.22;95936.00;10391685;28;5030;-48
2022/12/31 11:13:52;;;;;;;;;;;;;;;19.84;39.45;95929.72;10388998;28;2554;-51
2022/12/31 11:19:10;;;;;;;;;;;;;;;19.85;39.59;95933.91;10385508;28;2566;-53
2022/12/31 11:24:17;;;;;;;;;;;;;;;19.82;39.37;95932.59;10397416;28;2613;-48
2022/12/31 11:29:37;;;;;;;;;;;;;;;19.81;39.57;95925.75;10390102;28;2574;-49
2022/12/31 11:34:37;;;;;;;;;;;;;;;19.75;39.65;95913.66;10389761;28;2609;-51
2022/12/31 11:39:37;;;;;;;;;;;;;;;19.72;39.51;95913.41;10393387;28;2601;-50
2022/12/31 11:44:45;;;;;;;;;;;;;;;19.74;39.41;95906.03;10393002;28;2529;-52
2022/12/31 11:49:52;;;;;;;;;;;;;;;19.71;39.51;95903.91;10410642;28;2574;-51
2022/12/31 11:54:58;;;;;;;;;;;;;;;19.69;39.75;95892.88;10395395;28;2702;-49
2022/12/31 11:59:59;;;;;;;;;;;;;;;19.71;39.68;95893.41;10396379;28;2590;-49
2022/12/31 12:05:00;;;;;;;;;;;;;;;19.68;39.88;95884.19;10392077;28;2676;-45
2022/12/31 12:10:02;;;;;;;;;;;;;;;19.70;39.79;95876.06;10405186;28;5154;-50
2022/12/31 12:15:05;;;;;;;;;;;;;;;19.70;39.72;95881.31;10394074;28;2916;-48
2022/12/31 12:20:15;;;;;;;;;;;;;;;19.70;40.12;95878.69;10386750;28;2889;-49
2022/12/31 12:25:18;;;;;;;;;;;;;;;19.68;40.33;95880.81;10411476;28;2906;-49
2022/12/31 12:30:20;;;;;;;;;;;;;;;19.67;40.68;95877.38;10399470;28;2967;-47
2022/12/31 12:35:38;;;;;;;;;;;;;;;19.68;41.07;95878.16;10392609;28;2863;-50
2022/12/31 12:40:39;;;;;;;;;;;;;;;19.68;41.20;95886.06;10386975;28;2910;-51
2022/12/31 12:45:42;;;;;;;;;;;;;;;19.69;41.38;95874.47;10388343;28;3161;-50
2022/12/31 12:50:43;;;;;;;;;;;;;;;19.74;41.55;95879.75;10393949;28;2868;-51
2022/12/31 12:55:49;;;;;;;;;;;;;;;19.74;42.71;95885.00;10390796;28;3009;-47
2022/12/31 13:00:52;;;;;;;;;;;;;;;19.78;43.29;95883.41;10389276;28;2886;-47
2022/12/31 13:06:05;;;;;;;;;;;;;;;19.81;43.53;95885.50;10408537;28;4424;-51
2022/12/31 13:11:24;;;;;;;;;;;;;;;19.79;43.54;95885.78;10390589;28;2887;-46
2022/12/31 13:16:24;;;;;;;;;;;;;;;19.79;43.78;95882.34;10391520;28;2920;-48
2022/12/31 13:21:25;;;;;;;;;;;;;;;19.78;44.10;95881.59;10397869;28;2970;-48
2022/12/31 13:26:36;;;;;;;;;;;;;;;19.81;44.64;95875.78;10389457;28;2863;-47
2022/12/31 13:31:36;;;;;;;;;;;;;;;19.83;44.80;95868.41;10394650;28;2841;-49
2022/12/31 13:36:37;;;;;;;;;;;;;;;19.82;45.30;95868.69;10398512;28;2962;-48
2022/12/31 13:41:42;;;;;;;;;;;;;;;19.79;45.21;95874.47;10404736;28;2858;-51
2022/12/31 13:46:43;;;;;;;;;;;;;;;19.75;45.86;95874.22;10403148;28;2879;-46
2022/12/31 13:51:44;;;;;;;;;;;;;;;19.73;46.43;95881.56;10413745;28;2879;-47
2022/12/31 13:56:45;;;;;;;;;;;;;;;19.78;46.80;95875.53;10401817;28;2914;-47
2022/12/31 14:01:48;;;;;;;;;;;;;;;19.78;46.96;95867.63;10393849;28;3005;-46
2022/12/31 14:06:51;;;;;;;;;;;;;;;19.75;46.68;95876.03;10394984;28;4476;-50
2022/12/31 14:12:12;;;;;;;;;;;;;;;19.74;47.01;95885.00;10392499;28;2871;-48
2022/12/31 14:17:16;;;;;;;;;;;;;;;19.77;47.44;95884.44;10397913;28;2879;-46
2022/12/31 14:22:20;;;;;;;;;;;;;;;19.73;47.54;95892.09;10390528;28;2976;-46
2022/12/31 14:27:21;;;;;;;;;;;;;;;19.70;47.44;95897.88;10395479;28;2797;-46
2022/12/31 14:32:54;;;;;;;;;;;;;;;19.67;47.48;95905.50;10389061;28;2891;-48
2022/12/31 14:38:13;;;;;;;;;;;;;;;19.63;47.52;95904.47;10393311;28;2965;-47
2022/12/31 14:43:17;;;;;;;;;;;;;;;19.65;47.89;95915.50;10391529;28;2842;-48
2022/12/31 14:48:24;;;;;;;;;;;;;;;19.60;47.91;95928.66;10407923;28;2837;-48
2022/12/31 14:53:24;;;;;;;;;;;;;;;19.53;47.75;95933.38;10393775;28;2849;-48
2022/12/31 14:58:35;;;;;;;;;;;;;;;19.53;48.21;95936.81;10380713;28;2817;-50
2022/12/31 15:03:35;;;;;;;;;;;;;;;19.49;48.20;95928.63;10407167;28;2914;-50
2022/12/31 15:08:54;;;;;;;;;;;;;;;19.47;48.04;95929.97;10401102;28;4417;-51
2022/12/31 15:13:54;;;;;;;;;;;;;;;19.44;47.83;95915.50;10401947;28;2952;-49
2022/12/31 15:19:10;;;;;;;;;;;;;;;19.42;47.89;95914.97;10399358;28;2915;-47
2022/12/31 15:24:19;;;;;;;;;;;;;;;19.44;48.50;95915.50;10399916;28;2820;-49
2022/12/31 15:29:27;;;;;;;;;;;;;;;19.45;48.30;95926.81;10403575;28;2839;-48
2022/12/31 15:34:32;;;;;;;;;;;;;;;19.45;47.78;95926.81;10397342;28;2830;-46
2022/12/31 15:39:37;;;;;;;;;;;;;;;19.47;48.26;95943.88;10412880;28;3018;-47
2022/12/31 15:44:57;;;;;;;;;;;;;;;19.51;48.76;95946.00;10389096;28;2889;-50
2022/12/31 15:49:58;;;;;;;;;;;;;;;19.57;49.40;95935.22;10394889;28;2909;-45
2022/12/31 15:54:58;;;;;;;;;;;;;;;19.76;49.04;95938.94;10395923;28;2864;-46
2022/12/31 15:59:59;;;;;;;;;;;;;;;19.92;49.26;95931.81;10397618;28;2894;-47
2022/12/31 16:05:00;;;;;;;;;;;;;;;20.07;48.87;95943.09;10390313;28;2870;-48
2022/12/31 16:10:00;;;;;;;;;;;;;;;20.23;48.84;95941.25;10406037;28;4574;-47
2022/12/31 16:15:00;;;;;;;;;;;;;;;20.32;48.34;95944.91;10389052;28;2911;-47
2022/12/31 16:20:18;;;;;;;;;;;;;;;20.37;48.02;95939.66;10391665;28;2870;-48
2022/12/31 16:25:19;;;;;;;;;;;;;;;20.40;48.03;95949.66;10390395;28;2868;-46
2022/12/31 16:30:26;;;;;;;;;;;;;;;20.45;47.37;95947.00;10397630;28;3249;-49
2022/12/31 16:35:29;;;;;;;;;;;;;;;20.57;46.88;95944.06;10396057;28;2878;-46
2022/12/31 16:40:30;;;;;;;;;;;;;;;20.58;46.36;95941.19;10392889;28;2834;-46
2022/12/31 16:45:31;;;;;;;;;;;;;;;20.54;44.50;95940.13;10385404;28;2949;-45
2022/12/31 16:50:31;;;;;;;;;;;;;;;20.64;46.87;95941.94;10395491;28;2812;-46
2022/12/31 16:55:32;;;;;;;;;;;;;;;20.72;48.33;95936.91;10390740;28;2894;-48
2022/12/31 17:00:32;;;;;;;;;;;;;;;20.59;47.28;95942.75;10408986;28;2848;-46
2022/12/31 17:05:35;;;;;;;;;;;;;;;20.47;45.23;95944.88;10390598;28;4441;-48
2022/12/31 17:10:35;;;;;;;;;;;;;;;20.41;45.35;95951.22;10392387;28;2902;-51
2022/12/31 17:15:39;;;;;;;;;;;;;;;20.57;47.21;95941.41;10405436;28;2875;-46
2022/12/31 17:20:39;;;;;;;;;;;;;;;20.58;48.82;95945.66;10404792;28;2888;-46
2022/12/31 17:25:39;;;;;;;;;;;;;;;20.68;48.62;95940.34;10389161;28;2903;-46
2022/12/31 17:30:40;;;;;;;;;;;;;;;20.62;47.99;95934.31;10409926;28;2834;-51
2022/12/31 17:35:43;;;;;;;;;;;;;;;20.56;47.46;95934.59;10388309;28;2889;-50
2022/12/31 17:40:43;;;;;;;;;;;;;;;20.55;47.53;95930.38;10390510;28;2846;-49
2022/12/31 17:45:44;;;;;;;;;;;;;;;20.54;45.89;95928.81;10395217;28;2883;-49
2022/12/31 17:50:48;;;;;;;;;;;;;;;20.56;46.66;95940.66;10389010;28;2976;-51
2022/12/31 17:55:51;;;;;;;;;;;;;;;20.57;45.39;95934.31;10405951;28;2874;-47
2022/12/31 18:00:52;;;;;;;;;;;;;;;20.58;44.65;95935.91;10385766;28;2867;-47
2022/12/31 18:05:52;;;;;;;;;;;;;;;20.59;44.53;95937.47;10394751;28;4445;-49
2022/12/31 18:10:52;;;;;;;;;;;;;;;20.63;44.27;95927.22;10391096;28;2854;-47
2022/12/31 18:15:53;;;;;;;;;;;;;;;20.66;44.27;95926.66;10390984;28;3014;-51
2022/12/31 18:20:56;;;;;;;;;;;;;;;20.70;44.38;95917.94;10393055;28;2831;-48
2022/12/31 18:25:57;;;;;;;;;;;;;;;20.96;47.91;95921.22;10386899;28;2990;-48
2022/12/31 18:30:57;;;;;;;;;;;;;;;20.95;48.27;95941.56;10389960;28;2860;-47
2022/12/31 18:35:57;;;;;;;;;;;;;;;20.87;46.46;95938.69;10396746;28;2875;-52
2022/12/31 18:40:57;;;;;;;;;;;;;;;20.76;44.54;95937.16;10403141;28;2922;-54
2022/12/31 18:45:58;;;;;;;;;;;;;;;20.71;44.25;95939.81;10401000;28;2890;-47
2022/12/31 18:50:58;;;;;;;;;;;;;;;20.69;45.23;95947.97;10406551;28;2934;-53
2022/12/31 18:55:58;;;;;;;;;;;;;;;20.68;44.73;95935.06;10409942;28;2907;-50
2022/12/31 19:00:58;;;;;;;;;;;;;;;20.68;44.69;95945.59;10403886;28;2955;-51
2022/12/31 19:05:59;;;;;;;;;;;;;;;20.67;45.85;95939.53;10397684;28;4492;-51
2022/12/31 19:10:59;;;;;;;;;;;;;;;20.66;45.40;95943.25;10400934;28;2875;-51
2022/12/31 19:15:59;;;;;;;;;;;;;;;20.67;45.12;95963.25;10416983;28;2876;-48
2022/12/31 19:21:00;;;;;;;;;;;;;;;20.71;47.54;95998.53;10401720;28;2891;-50
2022/12/31 19:26:00;;;;;;;;;;;;;;;20.66;45.65;95995.94;10406332;28;2900;-49
2022/12/31 19:31:00;;;;;;;;;;;;;;;20.58;44.91;95998.31;10404172;28;2867;-49
2022/12/31 19:36:01;;;;;;;;;;;;;;;20.54;44.97;96008.59;10404398;28;2831;-49
2022/12/31 19:41:01;;;;;;;;;;;;;;;20.61;46.55;96022.28;10398770;28;2779;-49
2022/12/31 19:46:02;;;;;;;;;;;;;;;20.53;44.94;96022.81;10397145;28;2903;-47
2022/12/31 19:51:02;;;;;;;;;;;;;;;20.47;44.23;96025.72;10388873;28;2818;-47
2022/12/31 19:56:02;;;;;;;;;;;;;;;20.41;45.23;96014.41;10412961;28;2835;-49
2022/12/31 20:01:02;;;;;;;;;;;;;;;20.37;45.03;96028.38;10398437;28;2899;-49
2022/12/31 20:06:04;;;;;;;;;;;;;;;20.34;45.66;96021.78;10390989;28;4416;-48
2022/12/31 20:11:11;;;;;;;;;;;;;;;20.31;45.06;96021.53;10385855;28;2841;-50
2022/12/31 20:16:12;;;;;;;;;;;;;;;20.27;45.22;96024.72;10392918;28;2897;-52
2022/12/31 20:21:13;;;;;;;;;;;;;;;20.25;44.90;96036.56;10406232;28;2923;-51
2022/12/31 20:26:14;;;;;;;;;;;;;;;20.23;44.46;96041.28;10387603;28;2919;-48
2022/12/31 20:31:15;;;;;;;;;;;;;;;20.19;43.91;96048.09;10385762;28;2915;-49
2022/12/31 20:36:15;;;;;;;;;;;;;;;20.16;43.42;96049.41;10392164;28;2911;-51
2022/12/31 20:41:16;;;;;;;;;;;;;;;20.14;43.49;96042.81;10393518;28;2872;-52
2022/12/31 20:46:20;;;;;;;;;;;;;;;20.12;43.56;96042.31;10405493;28;2886;-51
2022/12/31 20:51:21;;;;;;;;;;;;;;;20.09;43.28;96038.34;10391593;28;2923;-53
2022/12/31 20:56:21;;;;;;;;;;;;;;;20.09;43.50;96040.97;10394205;28;2848;-50
2022/12/31 21:01:21;;;;;;;;;;;;;;;20.07;43.07;96043.09;10395803;28;2911;-50
2022/12/31 21:06:22;;;;;;;;;;;;;;;20.08;42.82;96030.72;10387019;28;4460;-49
2022/12/31 21:16:41;;;;;;;;;;;;;;;20.08;43.21;96025.47;10388464;28;2831;-50
2022/12/31 21:21:41;;;;;;;;;;;;;;;20.07;42.42;96024.66;10387045;28;2894;-51
2022/12/31 21:26:41;;;;;;;;;;;;;;;20.05;42.32;96018.88;10395689;28;2905;-51
2022/12/31 21:31:42;;;;;;;;;;;;;;;20.06;42.32;96027.56;10384069;28;2874;-48
2022/12/31 21:36:42;;;;;;;;;;;;;;;20.07;42.09;96029.16;10393019;28;2866;-47
2022/12/31 21:41:51;;;;;;;;;;;;;;;20.07;41.69;96042.31;10391455;28;2829;-52
2022/12/31 21:52:30;;;;;;;;;;;;;;;20.07;41.92;96039.69;10388898;28;2876;-50
2022/12/31 21:57:30;;;;;;;;;;;;;;;20.06;41.43;96046.00;10385509;28;2958;-47
2022/12/31 22:07:49;;;;;;;;;;;;;;;20.08;41.72;96046.50;10387665;28;4436;-47
2022/12/31 22:12:49;;;;;;;;;;;;;;;20.08;42.04;96030.72;10387801;28;2856;-50
2022/12/31 22:17:50;;;;;;;;;;;;;;;20.10;41.93;96026.00;10390587;28;2891;-48
2022/12/31 22:22:50;;;;;;;;;;;;;;;20.10;42.13;96039.16;10386634;28;2838;-48
2022/12/31 22:27:50;;;;;;;;;;;;;;;20.08;41.57;96036.00;10385086;28;2827;-47
2022/12/31 22:32:50;;;;;;;;;;;;;;;20.13;42.48;96042.03;10384646;28;2886;-52
2022/12/31 22:37:51;;;;;;;;;;;;;;;20.08;41.97;96038.63;10395978;28;3064;-48
2022/12/31 22:42:51;;;;;;;;;;;;;;;20.06;41.57;96038.09;10381041;28;3069;-49
2022/12/31 22:47:51;;;;;;;;;;;;;;;20.02;42.11;96032.56;10389833;28;2894;-48
2022/12/31 22:52:51;;;;;;;;;;;;;;;20.03;42.32;96043.91;10387739;28;2893;-48
2022/12/31 22:57:52;;;;;;;;;;;;;;;20.07;43.01;96044.94;10385800;28;3005;-48
2022/12/31 23:02:52;;;;;;;;;;;;;;;20.04;43.58;96050.72;10381812;28;3001;-49
2022/12/31 23:07:52;;;;;;;;;;;;;;;20.00;41.81;96044.41;10382489;28;3046;-50
2022/12/31 23:12:52;;;;;;;;;;;;;;;19.95;41.65;96037.28;10387237;28;2831;-51
2022/12/31 23:23:13;;;;;;;;;;;;;;;19.95;43.59;96026.78;10398341;28;2853;-52
2022/12/31 23:28:14;;;;;;;;;;;;;;;19.91;42.09;96025.72;10395277;28;2949;-50
2022/12/31 23:33:15;;;;;;;;;;;;;;;19.88;42.48;96025.47;10406809;28;2975;-52
2022/12/31 23:38:16;;;;;;;;;;;;;;;19.85;41.38;96025.97;10391835;28;2899;-49
2022/12/31 23:43:19;;;;;;;;;;;;;;;19.83;41.64;96012.28;10394807;28;2874;-49
2022/12/31 23:48:20;;;;;;;;;;;;;;;19.84;42.66;96006.00;10402974;28;3011;-51
2022/12/31 23:53:21;;;;;;;;;;;;;;;19.81;41.95;96009.94;10389491;28;3050;-51
2022/12/31 23:58:21;;;;;;;;;;;;;;;19.81;42.61;96017.03;10402768;28;2974;-48
